Terminal Aerodrome Forecast
Issued by NWS

Home | Current Version | Previous Version | Text Only | Print | Product List | Glossary On
Versions: 1 2 3 4 5 6 7 8 9 10 11 12 13 14 15 16 17 18
549
FTUS45 KTFX 011748
TAFHLN
TAF
KHLN 011748Z 0118/0218 VRB05KT P6SM SCT060 WS020/27040KT
     FM012000 26015KT P6SM SCT050 BKN120
      TEMPO 0120/0123 25020G30KT
     FM020000 28015G25KT P6SM BKN050
     FM020300 26010KT P6SM BKN050=

USA.gov is the U.S. government's official web portal to all federal, state and local government web resources and services.